Time;durP1;ratioP1;P1;durP2;ratioP2;P2;SDS_P1;SDS_P2;PMS_P1;PMS_P2;Temp;Humidity;BMP_temperature;BMP_pressure;BME280_temperature;BME280_humidity;BME280_pressure;Samples;Min_cycle;Max_cycle;Signal;HPM_P1;HPM_P2
2022/09/18 00:02:19;;;;;;;4.13;0.70;;;12.30;50.60;;;;;;5055457;28;20041;-75
2022/09/18 00:04:45;;;;;;;1.52;0.88;;;12.30;50.60;;;;;;5048331;28;20040;-74
2022/09/18 00:07:11;;;;;;;1.63;1.10;;;12.30;50.70;;;;;;5044893;28;20039;-74
2022/09/18 00:09:37;;;;;;;1.77;1.00;;;12.20;50.50;;;;;;5049600;28;20043;-74
2022/09/18 00:12:03;;;;;;;1.55;1.05;;;12.20;50.60;;;;;;5046247;28;20104;-73
2022/09/18 00:14:29;;;;;;;1.30;1.10;;;12.20;50.70;;;;;;5025410;28;20040;-74
2022/09/18 00:16:55;;;;;;;1.92;0.80;;;12.10;50.60;;;;;;5048667;28;20033;-73
2022/09/18 00:19:21;;;;;;;1.27;0.80;;;12.10;50.70;;;;;;5040445;28;20068;-73
2022/09/18 00:21:49;;;;;;;1.65;0.80;;;12.10;50.70;;;;;;5047835;28;20052;-74
2022/09/18 00:24:16;;;;;;;1.40;0.65;;;12.00;50.60;;;;;;5027637;28;20029;-73
2022/09/18 00:26:44;;;;;;;1.40;0.90;;;12.00;50.70;;;;;;5032052;28;20037;-73
2022/09/18 00:29:11;;;;;;;1.80;0.70;;;11.90;50.60;;;;;;5050045;28;20037;-74
2022/09/18 00:31:38;;;;;;;1.60;0.68;;;11.90;50.70;;;;;;5047173;28;20541;-74
2022/09/18 00:34:07;;;;;;;1.73;1.55;;;11.90;50.70;;;;;;5046487;28;20079;-73
2022/09/18 00:36:34;;;;;;;2.70;0.88;;;11.80;50.70;;;;;;5042771;28;20383;-74
2022/09/18 00:39:01;;;;;;;3.65;1.15;;;11.80;50.80;;;;;;5043948;28;20341;-73
2022/09/18 00:41:37;;;;;;;1.95;0.70;;;11.80;50.90;;;;;;5045089;28;20477;-74
2022/09/18 00:44:34;;;;;;;4.07;1.42;;;11.70;50.70;;;;;;5049173;28;20017;-74
2022/09/18 00:47:09;;;;;;;2.75;0.90;;;11.60;50.70;;;;;;5050065;28;20048;-73
2022/09/18 00:50:08;;;;;;;1.33;0.70;;;11.60;50.70;;;;;;5053029;28;20408;-73
2022/09/18 00:52:59;;;;;;;2.00;0.90;;;11.60;50.90;;;;;;5028023;28;20031;-75
2022/09/18 00:55:32;;;;;;;2.13;0.85;;;11.50;50.70;;;;;;5034481;28;20055;-74
2022/09/18 00:58:01;;;;;;;1.70;0.82;;;11.50;50.70;;;;;;5037776;28;20099;-73
2022/09/18 01:00:28;;;;;;;1.65;0.80;;;11.40;50.60;;;;;;5014477;28;20055;-75
2022/09/18 01:02:55;;;;;;;1.77;0.82;;;11.40;50.70;;;;;;5043595;28;20052;-75
2022/09/18 01:05:33;;;;;;;1.55;0.70;;;11.40;50.70;;;;;;5049090;28;20033;-74
2022/09/18 01:08:15;;;;;;;0.90;0.80;;;11.30;50.70;;;;;;5049161;28;20041;-74
2022/09/18 01:11:00;;;;;;;1.27;0.65;;;11.30;50.80;;;;;;5047592;28;20040;-75
2022/09/18 01:13:31;;;;;;;1.83;0.80;;;11.30;50.80;;;;;;5047746;28;20067;-74
2022/09/18 01:16:26;;;;;;;1.65;1.05;;;11.30;50.80;;;;;;5041913;28;20037;-74
2022/09/18 01:19:30;;;;;;;0.57;0.57;;;11.20;50.80;;;;;;5039431;28;20041;-75
2022/09/18 01:22:24;;;;;;;0.82;0.63;;;11.20;50.80;;;;;;5031134;28;20029;-73
2022/09/18 01:25:11;;;;;;;1.02;0.75;;;11.20;50.80;;;;;;5047953;28;20037;-73
2022/09/18 01:27:40;;;;;;;1.33;0.70;;;11.10;50.70;;;;;;5042442;28;20034;-75
2022/09/18 01:30:09;;;;;;;2.25;1.00;;;11.10;50.60;;;;;;5036090;28;20037;-75
2022/09/18 01:32:50;;;;;;;1.15;0.88;;;11.00;50.50;;;;;;5013607;28;20079;-76
2022/09/18 01:35:38;;;;;;;1.15;0.98;;;11.00;50.60;;;;;;5048672;28;20041;-74
2022/09/18 01:38:14;;;;;;;1.05;0.70;;;10.90;50.50;;;;;;5034905;28;20030;-73
2022/09/18 01:41:03;;;;;;;1.60;0.70;;;10.90;50.60;;;;;;5036386;28;20044;-74
2022/09/18 01:43:31;;;;;;;2.58;0.93;;;10.80;50.50;;;;;;5030062;28;20039;-73
2022/09/18 01:46:05;;;;;;;2.40;0.73;;;10.80;50.50;;;;;;5043777;28;20033;-73
2022/09/18 01:48:39;;;;;;;1.15;0.90;;;10.80;50.70;;;;;;5034470;28;20033;-72
2022/09/18 01:51:15;;;;;;;3.08;0.85;;;10.70;50.60;;;;;;5046784;28;20101;-74
2022/09/18 01:53:53;;;;;;;1.73;1.20;;;10.70;50.70;;;;;;5044230;28;20040;-73
2022/09/18 01:56:31;;;;;;;1.20;0.80;;;10.60;50.60;;;;;;5045329;28;20140;-73
2022/09/18 01:59:00;;;;;;;2.47;0.93;;;10.60;50.60;;;;;;5049062;28;20044;-73
2022/09/18 02:01:39;;;;;;;2.13;0.80;;;10.50;50.50;;;;;;5040197;28;20400;-73
2022/09/18 02:04:12;;;;;;;1.58;0.80;;;10.50;50.60;;;;;;5029416;28;20041;-72
2022/09/18 02:06:43;;;;;;;2.03;1.13;;;10.50;50.70;;;;;;5049132;28;20017;-73
2022/09/18 02:09:10;;;;;;;1.05;0.73;;;10.50;50.70;;;;;;5050770;28;20025;-73
2022/09/18 02:11:43;;;;;;;1.45;0.90;;;10.40;50.60;;;;;;5052188;28;20037;-74
2022/09/18 02:14:19;;;;;;;1.88;0.80;;;10.40;50.70;;;;;;5045712;28;20030;-73
2022/09/18 02:17:09;;;;;;;1.77;0.70;;;10.40;50.70;;;;;;5037851;28;20440;-74
2022/09/18 02:19:44;;;;;;;1.25;0.73;;;10.30;50.50;;;;;;5039826;28;20029;-74
2022/09/18 02:22:14;;;;;;;1.65;0.80;;;10.30;50.50;;;;;;5045209;28;20083;-74
2022/09/18 02:24:43;;;;;;;1.63;1.00;;;10.30;50.60;;;;;;5045914;28;20047;-74
2022/09/18 02:27:13;;;;;;;1.60;1.08;;;10.30;50.70;;;;;;5029195;28;20721;-75
2022/09/18 02:29:42;;;;;;;3.38;1.10;;;10.20;50.50;;;;;;5046907;28;20031;-74
2022/09/18 02:32:13;;;;;;;1.55;0.80;;;10.20;50.60;;;;;;5049654;28;20243;-75
2022/09/18 02:34:40;;;;;;;3.60;1.35;;;10.20;50.60;;;;;;5049665;28;20067;-74
2022/09/18 02:37:26;;;;;;;2.03;1.02;;;10.10;50.50;;;;;;5049002;28;20043;-74
2022/09/18 02:40:14;;;;;;;3.20;0.70;;;10.10;50.70;;;;;;5050524;28;20102;-74
2022/09/18 02:42:45;;;;;;;1.08;0.75;;;10.10;50.70;;;;;;5039326;28;20032;-74
2022/09/18 02:45:49;;;;;;;0.75;0.60;;;10.00;50.50;;;;;;5032563;28;20031;-75
2022/09/18 02:48:33;;;;;;;1.52;1.00;;;10.00;50.70;;;;;;5041165;28;20033;-74
2022/09/18 02:51:31;;;;;;;2.05;0.90;;;9.90;50.50;;;;;;5023807;28;20044;-74
2022/09/18 02:54:10;;;;;;;1.27;1.00;;;9.90;50.70;;;;;;5028857;28;20561;-75
2022/09/18 02:56:47;;;;;;;3.38;1.00;;;9.90;50.50;;;;;;5050029;28;20036;-74
2022/09/18 02:59:31;;;;;;;1.50;1.20;;;9.90;50.60;;;;;;5033469;28;20037;-74
2022/09/18 03:01:59;;;;;;;2.40;0.80;;;9.90;50.70;;;;;;5053579;28;20507;-75
2022/09/18 03:04:27;;;;;;;2.80;1.10;;;9.80;50.50;;;;;;5051237;28;20541;-74
2022/09/18 03:07:00;;;;;;;0.95;0.73;;;9.80;50.40;;;;;;5059192;28;20034;-74
2022/09/18 03:09:28;;;;;;;1.25;0.85;;;9.80;50.50;;;;;;5029518;28;20098;-75
2022/09/18 03:11:55;;;;;;;1.50;0.80;;;9.80;51.10;;;;;;5018480;28;20037;-76
2022/09/18 03:14:21;;;;;;;2.00;0.80;;;9.70;50.40;;;;;;5030356;28;20076;-76
2022/09/18 03:16:47;;;;;;;2.05;0.98;;;9.70;50.50;;;;;;5022335;28;20035;-75
2022/09/18 03:19:14;;;;;;;2.30;0.95;;;9.70;50.60;;;;;;5046392;28;20032;-73
2022/09/18 03:21:42;;;;;;;0.93;0.90;;;9.60;50.40;;;;;;5044799;28;20024;-74
2022/09/18 03:24:12;;;;;;;1.38;0.80;;;9.60;50.40;;;;;;5046533;28;20038;-74
2022/09/18 03:26:45;;;;;;;1.48;1.00;;;9.60;50.50;;;;;;5049110;28;20378;-74
2022/09/18 03:29:14;;;;;;;4.32;0.93;;;9.60;50.50;;;;;;5051342;28;20093;-73
2022/09/18 03:31:43;;;;;;;1.80;1.30;;;9.60;50.60;;;;;;5043225;28;20029;-74
2022/09/18 03:34:10;;;;;;;1.98;1.13;;;9.50;50.40;;;;;;5053127;28;20049;-72
2022/09/18 03:36:37;;;;;;;1.85;1.05;;;9.50;50.50;;;;;;5052575;28;20040;-74
2022/09/18 03:39:05;;;;;;;2.45;1.05;;;9.50;50.60;;;;;;5048336;28;20046;-74
2022/09/18 03:41:31;;;;;;;0.70;0.70;;;9.40;50.50;;;;;;5054389;28;20037;-74
2022/09/18 03:43:57;;;;;;;1.13;0.82;;;9.40;50.50;;;;;;5056699;28;20109;-73
2022/09/18 03:46:23;;;;;;;1.63;0.80;;;9.40;50.60;;;;;;5055206;28;20074;-73
2022/09/18 03:48:53;;;;;;;1.17;0.88;;;9.40;50.60;;;;;;5019635;28;20071;-73
2022/09/18 03:51:22;;;;;;;1.38;0.60;;;9.40;50.70;;;;;;5055360;28;20044;-73
2022/09/18 03:53:52;;;;;;;2.15;1.20;;;9.30;50.60;;;;;;5049821;28;20393;-72
2022/09/18 03:56:56;;;;;;;0.80;0.80;;;9.30;50.60;;;;;;5053865;28;20089;-73
2022/09/18 03:59:22;;;;;;;1.13;0.80;;;9.30;50.60;;;;;;5053190;28;20040;-73
2022/09/18 04:02:07;;;;;;;3.35;1.00;;;9.20;50.50;;;;;;5053398;28;20025;-73
2022/09/18 04:04:56;;;;;;;1.40;0.90;;;9.20;50.50;;;;;;5052501;28;20096;-73
2022/09/18 04:07:40;;;;;;;2.10;0.90;;;9.20;50.50;;;;;;5041344;28;20068;-73
2022/09/18 04:10:48;;;;;;;0.73;0.60;;;9.20;50.50;;;;;;5050849;28;20029;-71
2022/09/18 04:13:15;;;;;;;1.50;1.02;;;9.10;50.30;;;;;;5051387;28;20113;-74
2022/09/18 04:15:44;;;;;;;1.02;0.80;;;9.10;50.40;;;;;;5050444;28;20086;-73
2022/09/18 04:18:10;;;;;;;2.58;0.85;;;9.10;50.60;;;;;;5032847;28;20025;-74
2022/09/18 04:20:36;;;;;;;0.90;0.90;;;9.00;50.50;;;;;;5030310;28;20033;-73
2022/09/18 04:23:06;;;;;;;2.15;0.80;;;9.00;50.50;;;;;;5045163;28;20031;-74
2022/09/18 04:25:33;;;;;;;1.52;1.23;;;9.00;50.50;;;;;;5051063;28;20033;-74
2022/09/18 04:28:03;;;;;;;0.98;0.60;;;9.00;50.60;;;;;;5050902;28;20052;-73
2022/09/18 04:30:29;;;;;;;1.48;1.05;;;9.00;50.60;;;;;;5034415;28;20032;-74
2022/09/18 04:32:58;;;;;;;1.73;0.80;;;8.90;50.50;;;;;;5050589;28;20037;-73
2022/09/18 04:35:25;;;;;;;1.17;0.80;;;8.90;50.60;;;;;;5042146;28;20056;-73
2022/09/18 04:37:51;;;;;;;0.70;0.70;;;8.80;50.40;;;;;;5042380;28;20037;-74
2022/09/18 04:40:21;;;;;;;1.77;0.95;;;8.80;50.50;;;;;;5050030;28;20032;-75
2022/09/18 04:42:49;;;;;;;1.40;0.70;;;8.80;50.60;;;;;;5051296;28;20033;-74
2022/09/18 04:45:15;;;;;;;1.30;0.75;;;8.80;50.60;;;;;;5050762;28;20041;-73
2022/09/18 04:47:46;;;;;;;1.27;0.70;;;8.80;50.70;;;;;;5028959;28;20029;-73
2022/09/18 04:50:13;;;;;;;1.70;0.95;;;8.80;50.70;;;;;;5030880;28;20113;-73
2022/09/18 04:52:59;;;;;;;0.75;0.60;;;8.80;50.70;;;;;;5037998;28;20062;-73
2022/09/18 04:55:28;;;;;;;1.60;1.00;;;8.70;50.60;;;;;;5045547;28;20032;-73
2022/09/18 04:57:55;;;;;;;1.58;1.08;;;8.70;50.60;;;;;;5046763;28;20025;-72
2022/09/18 05:00:23;;;;;;;1.75;0.90;;;8.70;50.60;;;;;;5030737;28;20032;-72
2022/09/18 05:02:49;;;;;;;1.27;0.80;;;8.70;50.70;;;;;;5050713;28;20032;-73
2022/09/18 05:05:20;;;;;;;1.33;0.77;;;8.70;50.70;;;;;;5044184;28;20045;-74
2022/09/18 05:07:47;;;;;;;1.15;0.95;;;8.70;50.80;;;;;;5047824;28;20041;-74
2022/09/18 05:10:17;;;;;;;1.33;0.90;;;8.60;50.60;;;;;;5048088;28;20037;-73
2022/09/18 05:12:43;;;;;;;1.58;0.77;;;8.60;50.70;;;;;;5030989;28;20049;-74
2022/09/18 05:15:11;;;;;;;0.70;0.70;;;8.60;50.70;;;;;;5044130;28;20037;-74
2022/09/18 05:17:40;;;;;;;1.98;0.88;;;8.60;50.80;;;;;;5027870;28;20048;-73
2022/09/18 05:20:09;;;;;;;1.05;0.73;;;8.60;50.80;;;;;;5031551;28;20029;-75
2022/09/18 05:22:38;;;;;;;1.13;0.80;;;8.50;50.60;;;;;;5031155;28;20430;-74
2022/09/18 05:25:09;;;;;;;0.90;0.80;;;8.50;50.70;;;;;;5040988;28;20149;-74
2022/09/18 05:27:35;;;;;;;2.90;1.00;;;8.50;50.70;;;;;;5045074;28;20028;-75
2022/09/18 05:30:01;;;;;;;2.28;1.02;;;8.50;50.80;;;;;;5046791;28;20037;-75
2022/09/18 05:32:54;;;;;;;1.08;0.98;;;8.40;50.60;;;;;;5042545;28;20479;-75
2022/09/18 05:35:23;;;;;;;5.78;0.90;;;8.40;50.70;;;;;;5029468;28;20506;-75
2022/09/18 05:37:51;;;;;;;2.38;0.68;;;8.30;50.50;;;;;;5030354;28;20037;-74
2022/09/18 05:40:23;;;;;;;1.67;0.93;;;8.30;50.60;;;;;;5036004;28;20037;-74
2022/09/18 05:42:51;;;;;;;1.00;0.88;;;8.20;50.50;;;;;;5047306;28;20033;-76
2022/09/18 05:45:19;;;;;;;1.67;0.88;;;8.20;50.60;;;;;;5026298;28;20559;-73
2022/09/18 05:48:04;;;;;;;2.75;0.90;;;8.20;50.70;;;;;;5039491;28;20021;-74
2022/09/18 05:50:37;;;;;;;0.77;0.70;;;8.20;51.30;;;;;;5027993;28;20045;-74
2022/09/18 05:53:10;;;;;;;2.10;1.02;;;8.10;50.60;;;;;;5047049;28;20037;-75
2022/09/18 05:55:43;;;;;;;1.27;0.80;;;8.10;50.70;;;;;;5029205;28;20194;-74
2022/09/18 05:58:13;;;;;;;0.85;0.82;;;8.10;50.70;;;;;;5039628;28;20055;-74
2022/09/18 06:00:40;;;;;;;0.52;0.52;;;8.00;50.60;;;;;;5046919;28;20028;-73
2022/09/18 06:03:13;;;;;;;2.20;0.88;;;8.00;50.70;;;;;;5050131;28;20488;-74
2022/09/18 06:05:41;;;;;;;1.25;0.90;;;7.90;50.60;;;;;;5027510;28;20389;-74
2022/09/18 06:08:11;;;;;;;1.73;0.98;;;7.90;50.70;;;;;;5005197;28;20036;-74
2022/09/18 06:10:39;;;;;;;2.85;1.00;;;7.80;50.60;;;;;;5047531;28;20036;-74
2022/09/18 06:13:15;;;;;;;0.90;0.60;;;7.80;50.70;;;;;;5047345;28;20082;-75
2022/09/18 06:15:46;;;;;;;3.60;1.38;;;7.80;50.80;;;;;;5046366;28;20070;-73
2022/09/18 06:18:15;;;;;;;1.42;1.17;;;7.80;50.90;;;;;;5042736;28;20034;-72
2022/09/18 06:20:43;;;;;;;3.03;1.23;;;7.70;50.80;;;;;;5045708;28;20043;-73
2022/09/18 06:23:09;;;;;;;1.13;1.05;;;7.70;50.90;;;;;;5046249;28;20372;-74
2022/09/18 06:26:01;;;;;;;2.80;1.50;;;7.70;50.90;;;;;;5046110;28;20048;-73
2022/09/18 06:28:29;;;;;;;1.08;1.00;;;7.70;51.10;;;;;;5024000;28;20028;-72
2022/09/18 06:31:01;;;;;;;1.00;0.90;;;7.70;51.10;;;;;;5029026;28;20359;-74
2022/09/18 06:33:32;;;;;;;0.90;0.90;;;7.70;51.10;;;;;;5041362;28;20103;-76
2022/09/18 06:36:00;;;;;;;1.88;1.20;;;7.70;51.20;;;;;;5046692;28;20044;-74
2022/09/18 06:38:36;;;;;;;1.15;1.05;;;7.70;51.20;;;;;;5030717;28;20037;-76
2022/09/18 06:41:06;;;;;;;1.00;0.90;;;7.70;51.30;;;;;;5035157;28;20188;-75
2022/09/18 06:43:49;;;;;;;2.05;0.85;;;7.70;51.30;;;;;;5041168;28;20033;-77
2022/09/18 06:46:30;;;;;;;1.05;0.95;;;7.70;51.40;;;;;;5046667;28;20043;-74
2022/09/18 06:48:59;;;;;;;2.22;1.05;;;7.80;51.50;;;;;;5044541;28;20072;-75
2022/09/18 06:51:25;;;;;;;2.55;1.20;;;7.80;51.60;;;;;;5042937;28;20056;-73
2022/09/18 06:54:05;;;;;;;2.08;0.95;;;7.90;51.80;;;;;;5046385;28;20462;-75
2022/09/18 06:56:31;;;;;;;2.25;1.35;;;7.90;51.80;;;;;;5029672;28;20509;-73
2022/09/18 06:58:57;;;;;;;4.35;1.73;;;8.00;52.10;;;;;;5038820;28;20029;-73
2022/09/18 07:01:23;;;;;;;2.53;1.63;;;8.00;52.10;;;;;;5027767;28;20071;-75
2022/09/18 07:03:59;;;;;;;1.77;1.45;;;8.10;52.40;;;;;;5045464;28;20033;-75
2022/09/18 07:06:31;;;;;;;5.85;1.92;;;8.20;52.60;;;;;;5028767;28;20029;-75
2022/09/18 07:08:57;;;;;;;2.55;1.30;;;8.20;52.70;;;;;;5021758;28;20041;-76
2022/09/18 07:11:49;;;;;;;1.45;1.15;;;8.30;52.90;;;;;;5032849;28;20036;-75
2022/09/18 07:14:17;;;;;;;3.58;0.98;;;8.40;53.10;;;;;;5029924;28;20057;-76
2022/09/18 07:16:43;;;;;;;1.70;1.10;;;8.40;53.10;;;;;;5047239;28;20081;-76
2022/09/18 07:19:11;;;;;;;1.20;1.10;;;8.50;53.30;;;;;;5030096;28;20039;-76
2022/09/18 07:21:38;;;;;;;1.50;1.00;;;8.50;53.30;;;;;;5044944;28;20357;-76
2022/09/18 07:24:04;;;;;;;1.63;1.52;;;8.60;53.40;;;;;;5045043;28;20025;-76
2022/09/18 07:26:36;;;;;;;1.30;1.20;;;8.70;53.70;;;;;;5044103;28;20028;-74
2022/09/18 07:29:03;;;;;;;1.42;1.30;;;8.70;53.80;;;;;;5015826;28;20106;-76
2022/09/18 07:31:34;;;;;;;1.67;1.27;;;8.70;53.70;;;;;;5045771;28;20074;-75
2022/09/18 07:34:04;;;;;;;5.30;1.83;;;8.80;54.00;;;;;;5025961;28;20053;-77
2022/09/18 07:36:30;;;;;;;2.55;1.25;;;8.90;54.20;;;;;;5028328;28;20395;-74
2022/09/18 07:38:57;;;;;;;2.80;1.50;;;9.00;54.50;;;;;;5046573;28;20027;-74
2022/09/18 07:41:27;;;;;;;2.75;1.60;;;9.10;54.70;;;;;;5042434;28;20041;-74
2022/09/18 07:43:53;;;;;;;2.95;1.75;;;9.20;54.90;;;;;;5047991;28;20044;-74
2022/09/18 07:46:20;;;;;;;4.53;1.77;;;9.30;55.00;;;;;;5033616;28;20041;-74
2022/09/18 07:48:50;;;;;;;2.78;1.67;;;9.40;55.10;;;;;;5039725;28;20038;-74
2022/09/18 07:51:22;;;;;;;2.15;1.73;;;9.60;55.40;;;;;;5046999;28;20028;-82
2022/09/18 07:53:48;;;;;;;5.07;1.77;;;9.60;55.30;;;;;;5050229;28;20127;-83
2022/09/18 07:56:21;;;;;;;2.75;1.80;;;9.80;56.20;;;;;;5043984;28;20044;-80
2022/09/18 07:58:48;;;;;;;3.15;1.65;;;9.80;55.70;;;;;;5032711;28;20591;-80
2022/09/18 08:01:18;;;;;;;2.72;1.77;;;9.90;55.90;;;;;;5045655;28;20062;-75
2022/09/18 08:03:47;;;;;;;1.88;1.67;;;10.00;56.10;;;;;;5048522;28;20037;-73
2022/09/18 08:06:13;;;;;;;2.72;2.00;;;10.20;56.50;;;;;;5043313;28;20076;-75
2022/09/18 08:09:02;;;;;;;3.28;2.03;;;10.30;56.60;;;;;;5046149;28;20049;-74
2022/09/18 08:11:50;;;;;;;2.78;1.60;;;10.50;56.80;;;;;;5044087;28;20495;-76
2022/09/18 08:14:40;;;;;;;3.63;1.80;;;10.70;57.00;;;;;;5040337;28;20111;-75
2022/09/18 08:17:24;;;;;;;5.15;2.33;;;10.80;56.80;;;;;;5044103;28;20388;-74
2022/09/18 08:20:19;;;;;;;10.30;3.63;;;11.10;57.10;;;;;;5047910;28;20043;-72
2022/09/18 08:22:53;;;;;;;3.20;1.77;;;11.20;57.10;;;;;;5029078;28;20079;-73
2022/09/18 08:25:26;;;;;;;8.93;2.80;;;11.30;57.20;;;;;;5049753;28;20025;-73
2022/09/18 08:27:52;;;;;;;6.30;1.70;;;11.50;57.60;;;;;;5014966;28;20399;-73
2022/09/18 08:30:28;;;;;;;4.97;2.00;;;11.60;57.70;;;;;;5044742;28;20143;-72
2022/09/18 08:33:00;;;;;;;4.63;2.28;;;11.80;57.90;;;;;;5042269;28;20416;-74
2022/09/18 08:35:27;;;;;;;3.78;2.03;;;11.90;58.00;;;;;;5046866;28;20041;-73
2022/09/18 08:38:00;;;;;;;2.83;1.77;;;12.10;58.30;;;;;;5041682;28;20029;-73
2022/09/18 08:40:44;;;;;;;3.63;2.00;;;12.20;58.30;;;;;;5037490;28;20095;-73
2022/09/18 08:43:42;;;;;;;2.00;1.70;;;12.40;58.50;;;;;;5046380;28;20067;-74
2022/09/18 08:46:25;;;;;;;6.80;1.55;;;12.50;58.80;;;;;;5046318;28;20039;-74
2022/09/18 08:49:18;;;;;;;1.98;1.23;;;12.60;58.60;;;;;;5030305;28;20376;-74
2022/09/18 08:52:02;;;;;;;2.83;1.38;;;12.80;59.10;;;;;;5047130;28;20041;-73
2022/09/18 08:54:44;;;;;;;6.43;2.35;;;13.00;59.20;;;;;;5045231;28;20047;-74
2022/09/18 08:57:38;;;;;;;2.35;1.27;;;13.20;59.30;;;;;;5047684;28;20028;-75
2022/09/18 09:00:22;;;;;;;2.33;1.20;;;13.50;59.30;;;;;;5038488;28;20051;-74
2022/09/18 09:03:20;;;;;;;2.38;1.30;;;13.70;59.30;;;;;;5035858;28;20054;-74
2022/09/18 09:05:58;;;;;;;2.42;1.70;;;14.00;59.40;;;;;;5044023;28;20025;-80
2022/09/18 09:09:04;;;;;;;2.75;1.38;;;14.20;59.70;;;;;;5046186;28;20033;-78
2022/09/18 09:11:48;;;;;;;3.20;0.93;;;14.50;60.40;;;;;;5047027;28;20037;-78
2022/09/18 09:14:23;;;;;;;2.47;1.10;;;14.90;60.40;;;;;;5032315;28;20032;-79
2022/09/18 09:16:58;;;;;;;3.92;1.10;;;15.20;60.40;;;;;;5046532;28;20530;-77
2022/09/18 09:19:32;;;;;;;2.42;1.05;;;15.60;60.50;;;;;;5038703;28;20043;-77
2022/09/18 09:22:06;;;;;;;4.45;1.10;;;16.00;60.60;;;;;;5044318;28;20051;-75
2022/09/18 09:24:45;;;;;;;2.20;1.52;;;16.30;60.50;;;;;;5031413;28;20543;-79
2022/09/18 09:28:10;;;;;;;1.80;0.90;;;16.70;60.60;;;;;;5038414;28;20025;-81
2022/09/18 09:30:58;;;;;;;4.90;1.13;;;17.00;60.10;;;;;;5037044;28;20041;-77
2022/09/18 09:34:05;;;;;;;1.77;1.00;;;17.30;60.00;;;;;;5043642;28;20017;-79
2022/09/18 09:36:52;;;;;;;2.83;0.80;;;17.50;59.80;;;;;;5051518;28;20079;-80
2022/09/18 09:39:39;;;;;;;1.90;0.90;;;17.70;59.70;;;;;;5046757;28;20024;-79
2022/09/18 09:42:25;;;;;;;2.67;0.88;;;17.90;59.70;;;;;;5038623;28;20032;-75
2022/09/18 09:45:13;;;;;;;2.67;0.73;;;18.00;59.50;;;;;;5047885;28;20029;-75
2022/09/18 09:48:05;;;;;;;2.15;1.00;;;18.10;59.10;;;;;;5030005;28;20099;-77
2022/09/18 09:50:42;;;;;;;;;;;18.20;58.90;;;;;;5064625;28;20059;-75
2022/09/18 09:53:11;;;;;;;3.08;0.60;;;18.20;58.70;;;;;;5049835;28;20216;-75
2022/09/18 09:56:15;;;;;;;1.35;0.50;;;18.20;58.70;;;;;;5048873;28;20419;-76
2022/09/18 09:59:14;;;;;;;1.55;1.08;;;18.10;58.30;;;;;;5048476;28;20092;-76
2022/09/18 10:02:28;;;;;;;2.45;0.60;;;18.00;58.20;;;;;;5043953;28;20472;-77
2022/09/18 10:05:27;;;;;;;1.58;0.70;;;17.90;58.20;;;;;;5038206;28;20171;-79
2022/09/18 10:08:05;;;;;;;5.70;0.60;;;17.70;58.00;;;;;;5030516;28;20033;-78
2022/09/18 10:10:44;;;;;;;6.82;1.02;;;17.70;58.20;;;;;;5046804;28;20029;-77
2022/09/18 10:13:36;;;;;;;0.60;0.50;;;17.70;58.40;;;;;;5053055;28;20036;-78
2022/09/18 10:16:15;;;;;;;1.20;1.00;;;17.70;58.30;;;;;;5045530;28;20040;-74
2022/09/18 10:18:47;;;;;;;7.10;0.77;;;17.80;58.40;;;;;;5042282;28;20033;-83
2022/09/18 10:21:15;;;;;;;5.43;1.48;;;17.80;58.90;;;;;;5029903;28;20017;-79
2022/09/18 10:24:03;;;;;;;1.25;0.80;;;17.80;58.20;;;;;;5046772;28;20572;-77
2022/09/18 10:26:36;;;;;;;2.70;0.90;;;17.90;58.90;;;;;;5045802;28;20037;-77
2022/09/18 10:29:04;;;;;;;2.22;0.93;;;17.90;58.00;;;;;;5029806;28;20029;-74
2022/09/18 10:31:55;;;;;;;2.50;0.70;;;17.90;57.80;;;;;;5046047;28;20033;-75
2022/09/18 10:34:35;;;;;;;1.55;0.75;;;17.90;57.30;;;;;;5035361;28;20032;-76
2022/09/18 10:37:02;;;;;;;1.40;1.00;;;17.90;57.00;;;;;;5027231;28;20496;-74
2022/09/18 10:39:30;;;;;;;2.35;0.60;;;17.90;57.00;;;;;;5045180;28;20033;-76
2022/09/18 10:42:02;;;;;;;3.10;0.70;;;17.90;56.70;;;;;;5027630;28;20099;-75
2022/09/18 10:44:47;;;;;;;1.60;0.75;;;17.90;56.60;;;;;;5045647;28;20036;-75
2022/09/18 10:47:24;;;;;;;4.07;0.70;;;18.00;56.50;;;;;;5042067;28;20029;-76
2022/09/18 10:50:05;;;;;;;2.85;1.20;;;18.00;56.50;;;;;;5043815;28;20114;-82
2022/09/18 10:52:39;;;;;;;3.10;0.90;;;18.10;56.80;;;;;;5027829;28;20021;-76
2022/09/18 10:55:25;;;;;;;2.50;1.02;;;18.20;56.90;;;;;;5027426;28;20033;-75
2022/09/18 10:57:56;;;;;;;2.25;1.10;;;18.30;56.90;;;;;;5028526;28;20045;-76
2022/09/18 11:00:23;;;;;;;1.00;0.90;;;18.30;56.60;;;;;;5033709;28;20492;-76
2022/09/18 11:03:13;;;;;;;2.25;0.90;;;18.40;56.50;;;;;;5054150;28;20078;-77
2022/09/18 11:05:53;;;;;;;2.17;1.05;;;18.40;56.10;;;;;;5029482;28;20095;-77
2022/09/18 11:08:22;;;;;;;3.30;1.05;;;18.40;56.00;;;;;;5029940;28;20116;-77
2022/09/18 11:11:03;;;;;;;3.08;0.82;;;18.40;56.00;;;;;;5057458;28;20036;-75
2022/09/18 11:13:35;;;;;;;1.85;1.00;;;18.30;55.60;;;;;;5050563;28;20107;-79
2022/09/18 11:16:02;;;;;;;0.95;0.80;;;18.30;55.50;;;;;;5032474;28;20749;-74
2022/09/18 11:18:31;;;;;;;1.98;1.05;;;18.30;55.30;;;;;;5005636;28;20033;-75
2022/09/18 11:21:02;;;;;;;1.90;1.02;;;18.30;55.30;;;;;;5054041;28;20051;-79
2022/09/18 11:23:31;;;;;;;4.90;0.90;;;18.30;55.30;;;;;;5055425;28;20032;-87
2022/09/18 11:26:27;;;;;;;1.85;0.95;;;18.30;55.30;;;;;;5033026;28;20488;-89
2022/09/18 11:28:59;;;;;;;1.85;0.80;;;18.40;55.20;;;;;;5060121;28;20031;-74
2022/09/18 11:31:42;;;;;;;1.42;0.93;;;18.60;55.40;;;;;;5021729;28;20046;-76
2022/09/18 11:34:43;;;;;;;2.15;0.90;;;18.70;55.00;;;;;;5040029;28;20039;-77
2022/09/18 11:37:14;;;;;;;2.05;0.73;;;19.00;55.00;;;;;;5036857;28;20055;-78
2022/09/18 11:39:50;;;;;;;1.65;0.80;;;19.10;54.90;;;;;;5027858;28;20044;-84
2022/09/18 11:42:17;;;;;;;2.08;1.00;;;19.20;55.40;;;;;;5038189;28;20037;-81
2022/09/18 11:44:46;;;;;;;3.10;0.80;;;19.50;55.00;;;;;;5030145;28;20098;-79
2022/09/18 11:47:16;;;;;;;0.90;0.80;;;19.80;55.20;;;;;;5029427;28;20036;-81
2022/09/18 11:50:03;;;;;;;1.55;1.10;;;20.00;55.60;;;;;;5046121;28;20049;-82
2022/09/18 11:52:36;;;;;;;2.58;1.77;;;20.30;55.00;;;;;;5048457;28;20021;-81
2022/09/18 11:55:32;;;;;;;2.80;1.02;;;20.40;55.20;;;;;;5033935;28;20048;-81
2022/09/18 11:58:04;;;;;;;4.07;1.20;;;20.50;54.10;;;;;;5034531;28;20045;-82
2022/09/18 12:00:41;;;;;;;1.52;1.23;;;20.60;54.10;;;;;;5025696;28;20037;-80
2022/09/18 12:03:31;;;;;;;1.55;0.90;;;20.60;53.80;;;;;;5068642;28;20083;-83
2022/09/18 12:06:37;;;;;;;4.00;1.20;;;20.60;53.80;;;;;;5037474;28;20109;-81
2022/09/18 12:09:32;;;;;;;1.88;0.90;;;20.60;53.60;;;;;;5056623;28;20124;-78
2022/09/18 12:12:19;;;;;;;4.45;1.23;;;20.70;53.80;;;;;;5030957;28;20045;-77
2022/09/18 12:14:57;;;;;;;1.02;0.60;;;20.80;54.00;;;;;;5032974;28;20380;-77
2022/09/18 12:17:32;;;;;;;3.10;1.05;;;21.10;54.10;;;;;;5031363;28;20043;-78
2022/09/18 12:20:03;;;;;;;1.02;0.93;;;21.40;54.20;;;;;;5045429;28;20029;-77
2022/09/18 12:22:44;;;;;;;3.05;1.05;;;21.60;53.90;;;;;;5029311;28;20106;-77
2022/09/18 12:25:14;;;;;;;2.53;0.95;;;21.80;53.80;;;;;;5046637;28;20079;-82
2022/09/18 12:28:09;;;;;;;1.58;0.70;;;22.00;53.80;;;;;;5050148;28;20049;-85
2022/09/18 12:31:00;;;;;;;2.33;1.33;;;22.20;53.80;;;;;;5047640;28;20456;-84
2022/09/18 12:34:21;;;;;;;0.98;0.80;;;22.30;53.60;;;;;;5029207;28;20072;-77
2022/09/18 12:37:01;;;;;;;2.20;1.20;;;22.40;53.30;;;;;;5041439;28;20538;-81
2022/09/18 12:39:49;;;;;;;4.22;1.08;;;22.40;53.50;;;;;;5024833;28;20435;-81
2022/09/18 12:42:24;;;;;;;3.33;0.90;;;22.60;53.50;;;;;;5039993;28;20034;-78
2022/09/18 12:45:09;;;;;;;2.22;0.80;;;22.70;53.40;;;;;;5047764;28;20033;-78
2022/09/18 12:48:00;;;;;;;2.28;0.77;;;22.80;53.10;;;;;;5054536;28;20055;-83
2022/09/18 12:50:32;;;;;;;3.10;0.80;;;23.00;52.80;;;;;;5046910;28;20045;-86
2022/09/18 12:53:36;;;;;;;1.38;0.90;;;23.10;52.90;;;;;;5028613;28;20037;-85
2022/09/18 12:56:23;;;;;;;1.48;0.77;;;23.10;52.30;;;;;;5043180;28;20516;-85
2022/09/18 12:58:54;;;;;;;1.45;1.00;;;23.10;52.20;;;;;;5048740;28;20047;-87
2022/09/18 13:01:40;;;;;;;1.75;0.80;;;23.00;52.00;;;;;;5051660;28;20036;-83
2022/09/18 13:04:25;;;;;;;2.90;0.85;;;23.00;52.00;;;;;;5043568;28;20018;-75
2022/09/18 13:07:18;;;;;;;3.40;1.38;;;23.00;51.70;;;;;;5047907;28;20082;-74
2022/09/18 13:09:58;;;;;;;3.15;1.73;;;23.10;51.60;;;;;;5045072;28;20029;-75
2022/09/18 13:12:47;;;;;;;3.25;0.90;;;23.20;51.70;;;;;;5047671;28;20048;-75
2022/09/18 13:15:17;;;;;;;1.63;1.02;;;23.40;51.70;;;;;;5048416;28;20047;-75
2022/09/18 13:17:49;;;;;;;2.92;1.20;;;23.60;51.60;;;;;;5045707;28;20083;-76
2022/09/18 13:20:24;;;;;;;2.93;1.10;;;23.80;51.60;;;;;;5042768;28;20025;-75
2022/09/18 13:22:53;;;;;;;1.60;1.10;;;23.80;51.20;;;;;;5038995;28;20040;-75
2022/09/18 13:25:39;;;;;;;1.85;0.85;;;23.90;51.00;;;;;;5061837;28;20036;-75
2022/09/18 13:28:13;;;;;;;2.65;1.10;;;23.80;50.40;;;;;;5054644;28;20028;-76
2022/09/18 13:30:39;;;;;;;0.63;0.60;;;23.80;50.70;;;;;;5031338;28;20028;-75
2022/09/18 13:33:24;;;;;;;2.80;1.33;;;23.80;50.90;;;;;;5045612;28;20040;-75
2022/09/18 13:35:56;;;;;;;2.60;0.95;;;23.80;50.70;;;;;;5044200;28;20052;-75
2022/09/18 13:38:27;;;;;;;0.70;0.70;;;24.00;50.70;;;;;;5047697;28;20029;-76